createdAt,value
2022-10-11T00:00:58.424Z,49.15
2022-10-11T00:01:58.349Z,52.37
2022-10-11T00:02:58.355Z,55.75
2022-10-11T00:03:58.330Z,62.52
2022-10-11T00:04:58.361Z,57.04
2022-10-11T00:05:58.305Z,60.42
2022-10-11T00:06:58.290Z,60.42
2022-10-11T00:07:58.277Z,58.97
2022-10-11T00:08:58.285Z,53.50
2022-10-11T00:09:58.272Z,56.24
2022-10-11T00:10:58.248Z,53.82
2022-10-11T00:11:58.243Z,59.30
2022-10-11T00:12:58.234Z,58.65
2022-10-11T00:13:58.231Z,58.17
2022-10-11T00:14:58.242Z,49.47
2022-10-11T00:15:58.231Z,59.78
2022-10-11T00:16:58.200Z,57.36
2022-10-11T00:18:02.110Z,60.26
2022-10-11T00:18:59.194Z,55.27
2022-10-11T00:19:58.176Z,53.98
2022-10-11T00:20:58.146Z,56.24
2022-10-11T00:21:58.139Z,52.69
2022-10-11T00:22:58.137Z,52.37
2022-10-11T00:23:58.123Z,59.46
2022-10-11T00:24:58.126Z,59.14
2022-10-11T00:25:58.100Z,58.97
2022-10-11T00:26:58.093Z,54.30
2022-10-11T00:27:58.083Z,52.85
2022-10-11T00:28:58.072Z,54.14
2022-10-11T00:29:58.074Z,56.88
2022-10-11T00:30:58.056Z,56.72
2022-10-11T00:31:58.045Z,60.26
2022-10-11T00:32:58.046Z,61.23
2022-10-11T00:33:58.030Z,57.52
2022-10-11T00:34:58.024Z,57.36
2022-10-11T00:35:58.096Z,52.53
2022-10-11T00:36:58.996Z,61.23
2022-10-11T00:37:57.986Z,55.43
2022-10-11T00:38:57.977Z,57.36
2022-10-11T00:39:57.993Z,59.46
2022-10-11T00:40:57.956Z,60.10
2022-10-11T00:41:57.947Z,59.46
2022-10-11T00:42:57.934Z,57.36
2022-10-11T00:43:57.922Z,52.37
2022-10-11T00:44:57.921Z,58.81
2022-10-11T00:45:58.014Z,60.75
2022-10-11T00:46:57.894Z,59.78
2022-10-11T00:47:57.885Z,57.85
2022-10-11T00:48:57.875Z,58.81
2022-10-11T00:49:57.876Z,58.17
2022-10-11T00:50:57.854Z,55.27
2022-10-11T00:51:57.842Z,55.91
2022-10-11T00:52:57.827Z,58.33
2022-10-11T00:53:57.817Z,53.50
2022-10-11T00:54:57.813Z,57.85
2022-10-11T00:55:57.841Z,54.62
2022-10-11T00:56:57.783Z,56.40
2022-10-11T00:57:57.774Z,60.75
2022-10-11T00:58:57.761Z,57.85
2022-10-11T00:59:57.768Z,58.33
2022-10-11T01:00:57.923Z,56.07
2022-10-11T01:01:57.733Z,55.11
2022-10-11T01:02:57.723Z,55.91
2022-10-11T01:03:57.709Z,62.04
2022-10-11T01:05:25.052Z,59.30
2022-10-11T01:05:59.690Z,60.26
2022-10-11T01:06:57.683Z,55.91
2022-10-11T01:07:57.671Z,57.52
2022-10-11T01:08:57.661Z,59.30
2022-10-11T01:09:57.659Z,63.97
2022-10-11T01:10:57.724Z,62.36
2022-10-11T01:11:57.627Z,60.91
2022-10-11T01:12:57.618Z,57.85
2022-10-11T01:13:57.609Z,60.10
2022-10-11T01:14:57.609Z,57.52
2022-10-11T01:15:57.583Z,57.69
2022-10-11T01:16:57.596Z,59.46
2022-10-11T01:17:57.565Z,60.26
2022-10-11T01:18:57.557Z,59.94
2022-10-11T01:19:57.553Z,59.78
2022-10-11T01:20:57.540Z,63.00
2022-10-11T01:21:57.528Z,55.75
2022-10-11T01:22:57.519Z,60.10
2022-10-11T01:23:57.524Z,59.94
2022-10-11T01:24:57.509Z,59.78
2022-10-11T01:25:57.489Z,58.81
2022-10-11T01:26:57.485Z,56.40
2022-10-11T01:27:57.454Z,59.30
2022-10-11T01:28:58.501Z,59.94
2022-10-11T01:29:57.456Z,59.94
2022-10-11T01:30:57.467Z,58.81
2022-10-11T01:31:57.431Z,59.30
2022-10-11T01:32:57.419Z,60.10
2022-10-11T01:33:57.404Z,57.85
2022-10-11T01:34:57.398Z,55.43
2022-10-11T01:35:58.383Z,63.49
2022-10-11T01:36:57.383Z,58.17
2022-10-11T01:37:57.362Z,56.40
2022-10-11T01:38:57.353Z,58.97
2022-10-11T01:39:57.354Z,58.33
2022-10-11T01:40:57.380Z,64.61
2022-10-11T01:41:57.324Z,60.91
2022-10-11T01:42:57.315Z,56.07
2022-10-11T01:43:57.310Z,60.26
2022-10-11T01:44:59.566Z,59.30
2022-10-11T01:45:57.284Z,61.23
2022-10-11T01:46:57.276Z,54.14
2022-10-11T01:47:57.266Z,54.30
2022-10-11T01:48:57.258Z,55.43
2022-10-11T01:49:57.275Z,60.42
2022-10-11T01:50:57.266Z,63.33
2022-10-11T01:51:57.223Z,59.30
2022-10-11T01:52:57.217Z,61.07
2022-10-11T01:53:57.204Z,60.59
2022-10-11T01:55:09.176Z,61.55
2022-10-11T01:55:59.202Z,60.91
2022-10-11T01:56:57.174Z,57.85
2022-10-11T01:57:57.158Z,61.39
2022-10-11T01:58:57.153Z,61.55
2022-10-11T01:59:57.184Z,58.65
2022-10-11T02:00:57.131Z,59.78
2022-10-11T02:01:57.181Z,60.59
2022-10-11T02:02:57.109Z,53.98
2022-10-11T02:03:57.104Z,60.42
2022-10-11T02:04:57.094Z,57.85
2022-10-11T02:05:57.094Z,60.26
2022-10-11T02:06:57.081Z,60.26
2022-10-11T02:07:57.065Z,57.20
2022-10-11T02:08:57.063Z,58.97
2022-10-11T02:09:57.058Z,60.91
2022-10-11T02:10:57.036Z,61.07
2022-10-11T02:11:58.020Z,63.81
2022-10-11T02:12:57.012Z,61.39
2022-10-11T02:13:57.006Z,61.39
2022-10-11T02:14:56.996Z,60.91
2022-10-11T02:15:56.996Z,62.84
2022-10-11T02:16:56.973Z,57.36
2022-10-11T02:17:56.966Z,61.39
2022-10-11T02:18:56.952Z,61.39
2022-10-11T02:19:56.944Z,57.20
2022-10-11T02:20:56.949Z,61.71
2022-10-11T02:21:56.924Z,61.07
2022-10-11T02:23:28.824Z,55.75
2022-10-11T02:23:56.938Z,60.91
2022-10-11T02:24:56.891Z,58.81
2022-10-11T02:25:56.896Z,60.10
2022-10-11T02:26:56.875Z,60.42
2022-10-11T02:27:56.871Z,63.33
2022-10-11T02:28:56.902Z,61.23
2022-10-11T02:29:56.848Z,61.55
2022-10-11T02:30:56.847Z,60.59
2022-10-11T02:31:56.820Z,60.91
2022-10-11T02:32:56.815Z,61.39
2022-10-11T02:33:56.804Z,60.42
2022-10-11T02:34:56.791Z,63.00
2022-10-11T02:35:56.791Z,58.97
2022-10-11T02:36:56.785Z,63.16
2022-10-11T02:37:56.764Z,63.97
2022-10-11T02:38:56.769Z,62.36
2022-10-11T02:39:56.745Z,60.59
2022-10-11T02:40:56.744Z,60.42
2022-10-11T02:41:56.729Z,58.65
2022-10-11T02:42:56.725Z,59.46
2022-10-11T02:43:56.705Z,66.55
2022-10-11T02:44:56.688Z,62.52
2022-10-11T02:45:56.709Z,58.65
2022-10-11T02:46:56.672Z,63.16
2022-10-11T02:47:56.704Z,61.23
2022-10-11T02:48:56.646Z,59.62
2022-10-11T02:49:56.636Z,62.68
2022-10-11T02:50:56.639Z,61.07
2022-10-11T02:51:56.619Z,61.55
2022-10-11T02:52:56.608Z,64.94
2022-10-11T02:53:56.621Z,64.13
2022-10-11T02:54:56.595Z,60.91
2022-10-11T02:55:56.591Z,60.91
2022-10-11T02:56:56.575Z,61.55
2022-10-11T02:57:56.592Z,61.87
2022-10-11T02:58:56.549Z,60.42
2022-10-11T02:59:56.543Z,59.94
2022-10-11T03:00:56.541Z,59.46
2022-10-11T03:01:56.568Z,61.87
2022-10-11T03:02:56.509Z,62.04
2022-10-11T03:03:56.503Z,62.68
2022-10-11T03:04:56.492Z,57.85
2022-10-11T03:05:56.508Z,61.39
2022-10-11T03:06:57.469Z,61.07
2022-10-11T03:07:56.468Z,65.10
2022-10-11T03:08:56.461Z,61.07
2022-10-11T03:09:56.445Z,60.75
2022-10-11T03:10:59.096Z,62.20
2022-10-11T03:11:56.415Z,65.74
2022-10-11T03:12:56.414Z,62.52
2022-10-11T03:13:56.409Z,61.07
2022-10-11T03:14:56.391Z,60.91
2022-10-11T03:16:03.389Z,63.49
2022-10-11T03:17:17.257Z,63.00
2022-10-11T03:17:58.365Z,59.78
2022-10-11T03:18:56.360Z,59.30
2022-10-11T03:19:56.344Z,63.33
2022-10-11T03:20:56.345Z,62.20
2022-10-11T03:21:56.324Z,60.59
2022-10-11T03:22:56.312Z,61.39
2022-10-11T03:23:56.314Z,61.07
2022-10-11T03:24:59.742Z,60.59
2022-10-11T03:25:58.295Z,60.59
2022-10-11T03:26:56.279Z,60.91
2022-10-11T03:27:56.268Z,65.42
2022-10-11T03:28:56.303Z,64.94
2022-10-11T03:29:56.248Z,61.23
2022-10-11T03:30:56.254Z,58.97
2022-10-11T03:31:56.227Z,62.04
2022-10-11T03:32:56.224Z,64.94
2022-10-11T03:33:56.206Z,59.30
2022-10-11T03:34:56.196Z,62.68
2022-10-11T03:35:56.207Z,63.49
2022-10-11T03:36:56.181Z,62.68
2022-10-11T03:37:56.175Z,63.97
2022-10-11T03:38:56.160Z,66.55
2022-10-11T03:39:56.153Z,63.97
2022-10-11T03:40:56.152Z,61.39
2022-10-11T03:41:56.151Z,66.87
2022-10-11T03:42:56.125Z,63.65
2022-10-11T03:43:56.114Z,64.78
2022-10-11T03:44:56.106Z,60.75
2022-10-11T03:45:56.104Z,64.29
2022-10-11T03:46:56.085Z,61.39
2022-10-11T03:47:56.076Z,60.91
2022-10-11T03:48:56.072Z,65.42
2022-10-11T03:49:56.054Z,65.74
2022-10-11T03:50:56.059Z,66.06
2022-10-11T03:51:56.038Z,67.68
2022-10-11T03:52:56.027Z,67.84
2022-10-11T03:53:56.033Z,63.97
2022-10-11T03:54:56.010Z,62.84
2022-10-11T03:55:56.029Z,65.26
2022-10-11T03:56:55.994Z,61.23
2022-10-11T03:57:55.985Z,63.33
2022-10-11T03:58:55.974Z,65.10
2022-10-11T03:59:55.958Z,65.58
2022-10-11T04:00:57.011Z,67.03
2022-10-11T04:01:56.038Z,65.10
2022-10-11T04:02:55.936Z,63.16
2022-10-11T04:03:55.927Z,63.97
2022-10-11T04:04:55.921Z,63.97
2022-10-11T04:05:55.920Z,64.13
2022-10-11T04:06:55.898Z,66.23
2022-10-11T04:07:55.915Z,66.39
2022-10-11T04:08:55.882Z,65.42
2022-10-11T04:09:55.887Z,61.87
2022-10-11T04:10:55.871Z,64.61
2022-10-11T04:11:55.853Z,65.42
2022-10-11T04:12:55.841Z,60.75
2022-10-11T04:13:55.839Z,63.33
2022-10-11T04:14:55.820Z,61.39
2022-10-11T04:15:55.823Z,62.20
2022-10-11T04:16:59.639Z,62.36
2022-10-11T04:17:56.793Z,66.23
2022-10-11T04:18:55.812Z,65.26
2022-10-11T04:19:55.776Z,63.65
2022-10-11T04:20:55.777Z,62.36
2022-10-11T04:21:55.758Z,63.16
2022-10-11T04:22:55.745Z,66.71
2022-10-11T04:23:55.739Z,65.74
2022-10-11T04:24:55.728Z,63.00
2022-10-11T04:25:55.765Z,66.87
2022-10-11T04:26:55.711Z,64.29
2022-10-11T04:27:55.699Z,65.10
2022-10-11T04:28:55.740Z,64.45
2022-10-11T04:29:55.689Z,62.04
2022-10-11T04:30:55.683Z,65.10
2022-10-11T04:31:55.662Z,64.13
2022-10-11T04:32:55.659Z,64.29
2022-10-11T04:33:55.644Z,65.42
2022-10-11T04:34:55.635Z,66.06
2022-10-11T04:35:55.637Z,65.26
2022-10-11T04:36:55.614Z,63.00
2022-10-11T04:37:55.611Z,61.39
2022-10-11T04:38:55.598Z,63.49
2022-10-11T04:39:55.586Z,65.26
2022-10-11T04:40:55.595Z,66.71
2022-10-11T04:41:55.566Z,64.78
2022-10-11T04:42:55.555Z,62.20
2022-10-11T04:43:55.551Z,60.26
2022-10-11T04:44:55.539Z,60.75
2022-10-11T04:45:55.683Z,67.51
2022-10-11T04:46:56.518Z,65.74
2022-10-11T04:47:55.512Z,67.68
2022-10-11T04:48:55.541Z,66.71
2022-10-11T04:49:55.488Z,65.58
2022-10-11T04:50:56.496Z,63.97
2022-10-11T04:51:55.475Z,64.78
2022-10-11T04:52:55.463Z,64.78
2022-10-11T04:53:55.449Z,65.90
2022-10-11T04:54:55.445Z,63.65
2022-10-11T04:55:55.449Z,65.10
2022-10-11T04:56:55.453Z,63.16
2022-10-11T04:57:55.416Z,60.26
2022-10-11T04:58:55.410Z,66.55
2022-10-11T04:59:55.403Z,61.39
2022-10-11T05:00:55.399Z,62.84
2022-10-11T05:01:55.436Z,64.29
2022-10-11T05:02:56.370Z,64.78
2022-10-11T05:03:55.375Z,63.65
2022-10-11T05:04:55.351Z,64.78
2022-10-11T05:05:55.358Z,60.59
2022-10-11T05:06:55.336Z,59.46
2022-10-11T05:07:55.324Z,65.10
2022-10-11T05:08:55.331Z,65.10
2022-10-11T05:09:55.298Z,64.94
2022-10-11T05:10:55.300Z,63.33
2022-10-11T05:11:55.272Z,65.74
2022-10-11T05:12:55.268Z,65.10
2022-10-11T05:13:55.255Z,64.29
2022-10-11T05:14:55.247Z,60.10
2022-10-11T05:15:55.247Z,64.94
2022-10-11T05:16:55.232Z,63.65
2022-10-11T05:17:55.220Z,66.23
2022-10-11T05:18:55.208Z,62.84
2022-10-11T05:19:55.205Z,63.49
2022-10-11T05:20:55.201Z,59.62
2022-10-11T05:21:55.184Z,63.97
2022-10-11T05:22:55.177Z,63.33
2022-10-11T05:23:55.159Z,62.04
2022-10-11T05:24:55.154Z,64.45
2022-10-11T05:25:55.164Z,65.26
2022-10-11T05:26:56.959Z,65.90
2022-10-11T05:27:55.127Z,62.20
2022-10-11T05:28:55.259Z,63.65
2022-10-11T05:29:55.134Z,63.33
2022-10-11T05:30:55.157Z,64.29
2022-10-11T05:31:55.097Z,63.97
2022-10-11T05:32:55.085Z,64.13
2022-10-11T05:33:55.071Z,63.16
2022-10-11T05:34:55.066Z,60.59
2022-10-11T05:35:55.073Z,60.59
2022-10-11T05:36:55.045Z,66.23
2022-10-11T05:37:56.065Z,61.39
2022-10-11T05:38:55.022Z,61.55
2022-10-11T05:39:55.016Z,61.23
2022-10-11T05:40:55.017Z,64.78
2022-10-11T05:41:55.069Z,63.65
2022-10-11T05:42:54.985Z,60.26
2022-10-11T05:43:54.980Z,60.91
2022-10-11T05:44:54.968Z,62.36
2022-10-11T05:45:54.969Z,63.65
2022-10-11T05:46:54.949Z,62.20
2022-10-11T05:47:54.944Z,61.07
2022-10-11T05:48:54.928Z,61.87
2022-10-11T05:49:54.924Z,62.68
2022-10-11T05:50:54.926Z,65.74
2022-10-11T05:51:54.925Z,62.20
2022-10-11T05:52:55.943Z,61.71
2022-10-11T05:53:54.918Z,61.23
2022-10-11T05:54:54.873Z,59.62
2022-10-11T05:55:54.898Z,64.78
2022-10-11T05:56:54.842Z,63.97
2022-10-11T05:57:55.846Z,60.59
2022-10-11T05:58:58.713Z,63.49
2022-10-11T05:59:55.823Z,62.04
2022-10-11T06:00:54.893Z,62.68
2022-10-11T06:01:54.927Z,63.33
2022-10-11T06:02:54.793Z,61.39
2022-10-11T06:03:54.787Z,61.87
2022-10-11T06:04:54.776Z,60.59
2022-10-11T06:05:57.214Z,63.00
2022-10-11T06:06:55.758Z,62.52
2022-10-11T06:07:54.748Z,60.91
2022-10-11T06:08:54.738Z,58.49
2022-10-11T06:09:54.733Z,60.91
2022-10-11T06:10:54.738Z,61.87
2022-10-11T06:11:54.703Z,60.10
2022-10-11T06:12:54.708Z,59.14
2022-10-11T06:13:54.693Z,60.75
2022-10-11T06:14:54.678Z,63.97
2022-10-11T06:15:54.696Z,59.78
2022-10-11T06:16:54.677Z,62.20
2022-10-11T06:17:54.658Z,60.42
2022-10-11T06:18:54.664Z,61.87
2022-10-11T06:19:54.640Z,62.04
2022-10-11T06:20:54.662Z,60.59
2022-10-11T06:21:54.619Z,60.91
2022-10-11T06:22:54.617Z,58.81
2022-10-11T06:23:59.853Z,63.49
2022-10-11T06:24:56.624Z,62.36
2022-10-11T06:25:54.600Z,56.72
2022-10-11T06:26:54.578Z,60.10
2022-10-11T06:27:54.563Z,60.75
2022-10-11T06:28:54.623Z,62.36
2022-10-11T06:29:54.547Z,61.55
2022-10-11T06:30:54.547Z,61.87
2022-10-11T06:31:55.542Z,60.42
2022-10-11T06:32:54.526Z,61.71
2022-10-11T06:33:54.514Z,64.45
2022-10-11T06:34:54.506Z,60.10
2022-10-11T06:35:54.514Z,62.20
2022-10-11T06:36:54.501Z,60.91
2022-10-11T06:37:54.492Z,61.07
2022-10-11T06:38:54.470Z,61.71
2022-10-11T06:39:54.466Z,60.91
2022-10-11T06:40:54.461Z,61.07
2022-10-11T06:41:54.446Z,56.40
2022-10-11T06:42:54.425Z,59.62
2022-10-11T06:43:55.425Z,59.30
2022-10-11T06:44:54.417Z,59.14
2022-10-11T06:45:54.458Z,57.85
2022-10-11T06:46:54.408Z,58.97
2022-10-11T06:47:54.390Z,60.91
2022-10-11T06:48:54.377Z,58.17
2022-10-11T06:49:54.369Z,59.94
2022-10-11T06:50:59.938Z,60.42
2022-10-11T06:51:56.363Z,58.81
2022-10-11T06:52:54.342Z,57.69
2022-10-11T06:53:54.353Z,61.39
2022-10-11T06:54:54.335Z,60.26
2022-10-11T06:55:54.318Z,59.30
2022-10-11T06:56:54.315Z,58.81
2022-10-11T06:57:54.294Z,57.85
2022-10-11T06:58:54.286Z,58.01
2022-10-11T06:59:54.274Z,59.46
2022-10-11T07:00:54.300Z,59.94
2022-10-11T07:01:54.269Z,57.69
2022-10-11T07:02:54.254Z,60.42
2022-10-11T07:03:54.255Z,60.42
2022-10-11T07:04:54.233Z,60.91
2022-10-11T07:05:55.496Z,59.14
2022-10-11T07:06:54.222Z,60.42
2022-10-11T07:07:54.202Z,58.65
2022-10-11T07:08:54.241Z,59.46
2022-10-11T07:09:54.183Z,54.30
2022-10-11T07:10:54.169Z,58.49
2022-10-11T07:11:54.171Z,60.42
2022-10-11T07:12:54.152Z,59.30
2022-10-11T07:13:54.146Z,58.49
2022-10-11T07:14:54.135Z,60.26
2022-10-11T07:15:54.128Z,60.91
2022-10-11T07:16:54.126Z,60.10
2022-10-11T07:17:54.107Z,57.52
2022-10-11T07:18:59.628Z,59.46
2022-10-11T07:19:56.087Z,61.07
2022-10-11T07:20:54.080Z,60.42
2022-10-11T07:21:54.085Z,58.49
2022-10-11T07:22:54.070Z,60.91
2022-10-11T07:23:54.058Z,58.17
2022-10-11T07:24:54.070Z,58.33
2022-10-11T07:25:54.077Z,61.23
2022-10-11T07:26:54.044Z,61.71
2022-10-11T07:27:54.039Z,58.33
2022-10-11T07:28:54.096Z,59.94
2022-10-11T07:29:54.007Z,58.81
2022-10-11T07:30:53.994Z,60.75
2022-10-11T07:31:53.997Z,57.85
2022-10-11T07:32:53.975Z,60.59
2022-10-11T07:33:53.965Z,59.30
2022-10-11T07:34:53.956Z,61.39
2022-10-11T07:35:53.963Z,59.62
2022-10-11T07:36:53.945Z,59.94
2022-10-11T07:37:53.930Z,60.26
2022-10-11T07:38:53.914Z,59.62
2022-10-11T07:39:53.904Z,60.91
2022-10-11T07:40:53.902Z,57.52
2022-10-11T07:41:53.902Z,59.14
2022-10-11T07:42:53.909Z,58.65
2022-10-11T07:43:53.906Z,59.78
2022-10-11T07:44:53.854Z,59.30
2022-10-11T07:45:53.879Z,56.88
2022-10-11T07:46:53.947Z,54.62
2022-10-11T07:47:53.976Z,57.20
2022-10-11T07:48:53.817Z,60.10
2022-10-11T07:49:53.812Z,58.97
2022-10-11T07:50:53.799Z,59.94
2022-10-11T07:51:53.800Z,58.81
2022-10-11T07:52:53.817Z,59.62
2022-10-11T07:53:53.771Z,58.49
2022-10-11T07:54:53.758Z,57.20
2022-10-11T07:55:53.794Z,59.14
2022-10-11T07:56:53.749Z,56.40
2022-10-11T07:57:53.733Z,60.26
2022-10-11T07:58:53.737Z,58.65
2022-10-11T07:59:53.729Z,57.85
2022-10-11T08:00:53.732Z,60.75
2022-10-11T08:01:53.743Z,59.46
2022-10-11T08:02:53.699Z,60.42
2022-10-11T08:03:53.680Z,58.65
2022-10-11T08:04:53.666Z,57.85
2022-10-11T08:05:53.651Z,58.97
2022-10-11T08:06:53.736Z,60.42
2022-10-11T08:07:53.640Z,58.65
2022-10-11T08:08:53.665Z,59.14
2022-10-11T08:09:53.671Z,57.04
2022-10-11T08:10:53.626Z,58.33
2022-10-11T08:11:53.611Z,56.07
2022-10-11T08:12:53.596Z,56.72
2022-10-11T08:13:53.581Z,57.85
2022-10-11T08:14:53.573Z,58.49
2022-10-11T08:15:53.581Z,58.17
2022-10-11T08:16:53.562Z,57.36
2022-10-11T08:17:53.540Z,58.33
2022-10-11T08:18:53.533Z,58.81
2022-10-11T08:19:53.521Z,58.81
2022-10-11T08:20:53.537Z,59.14
2022-10-11T08:21:53.518Z,58.81
2022-10-11T08:22:53.492Z,57.36
2022-10-11T08:23:53.486Z,59.30
2022-10-11T08:24:53.514Z,58.17
2022-10-11T08:25:53.524Z,59.46
2022-10-11T08:26:53.465Z,59.62
2022-10-11T08:27:53.442Z,59.30
2022-10-11T08:28:53.477Z,58.33
2022-10-11T08:29:53.431Z,58.81
2022-10-11T08:30:53.414Z,59.30
2022-10-11T08:31:53.413Z,59.30
2022-10-11T08:32:53.411Z,59.94
2022-10-11T08:33:53.379Z,61.07
2022-10-11T08:34:53.374Z,61.71
2022-10-11T08:35:53.392Z,59.30
2022-10-11T08:36:53.377Z,59.62
2022-10-11T08:37:53.420Z,59.14
2022-10-11T08:38:53.345Z,62.04
2022-10-11T08:39:53.327Z,59.62
2022-10-11T08:40:53.308Z,58.65
2022-10-11T08:41:53.322Z,59.62
2022-10-11T08:42:53.295Z,60.59
2022-10-11T08:43:53.286Z,61.07
2022-10-11T08:45:09.943Z,57.52
2022-10-11T08:45:55.316Z,59.30
2022-10-11T08:46:55.792Z,57.69
2022-10-11T08:47:55.246Z,58.97
2022-10-11T08:48:53.234Z,60.59
2022-10-11T08:49:53.216Z,59.46
2022-10-11T08:50:53.219Z,58.01
2022-10-11T08:51:53.205Z,58.17
2022-10-11T08:52:53.183Z,58.97
2022-10-11T08:53:53.170Z,58.81
2022-10-11T08:54:53.166Z,59.62
2022-10-11T08:55:53.175Z,60.91
2022-10-11T08:56:53.154Z,58.01
2022-10-11T08:57:53.134Z,60.26
2022-10-11T08:58:53.159Z,59.14
2022-10-11T08:59:53.119Z,57.20
2022-10-11T09:00:53.103Z,57.69
2022-10-11T09:01:53.187Z,59.94
2022-10-11T09:03:08.126Z,58.81
2022-10-11T09:03:55.091Z,59.46
2022-10-11T09:04:53.092Z,59.94
2022-10-11T09:05:53.089Z,59.78
2022-10-11T09:06:53.067Z,58.81
2022-10-11T09:07:53.034Z,61.07
2022-10-11T09:08:53.023Z,59.46
2022-10-11T09:09:53.012Z,62.20
2022-10-11T09:10:53.000Z,60.42
2022-10-11T09:11:53.006Z,60.91
2022-10-11T09:12:52.983Z,60.10
2022-10-11T09:13:53.008Z,60.26
2022-10-11T09:14:52.967Z,60.75
2022-10-11T09:15:52.952Z,58.97
2022-10-11T09:16:52.954Z,59.46
2022-10-11T09:17:52.932Z,59.94
2022-10-11T09:18:52.966Z,61.71
2022-10-11T09:19:52.913Z,59.94
2022-10-11T09:20:52.912Z,59.94
2022-10-11T09:21:52.904Z,60.26
2022-10-11T09:22:52.875Z,64.61
2022-10-11T09:23:52.867Z,59.46
2022-10-11T09:24:52.860Z,58.97
2022-10-11T09:25:52.847Z,62.36
2022-10-11T09:26:52.922Z,63.16
2022-10-11T09:28:08.325Z,63.81
2022-10-11T09:28:58.685Z,58.81
2022-10-11T09:29:54.804Z,65.90
2022-10-11T09:30:52.800Z,61.71
2022-10-11T09:31:52.813Z,60.75
2022-10-11T09:32:52.775Z,62.68
2022-10-11T09:33:52.766Z,62.04
2022-10-11T09:34:52.754Z,63.81
2022-10-11T09:35:52.744Z,61.39
2022-10-11T09:36:52.744Z,62.84
2022-10-11T09:37:52.724Z,60.75
2022-10-11T09:38:52.713Z,60.26
2022-10-11T09:39:52.717Z,59.94
2022-10-11T09:40:52.698Z,59.78
2022-10-11T09:41:52.697Z,61.07
2022-10-11T09:42:52.705Z,59.30
2022-10-11T09:43:52.665Z,63.00
2022-10-11T09:44:52.810Z,60.26
2022-10-11T09:45:52.650Z,63.97
2022-10-11T09:46:52.657Z,59.46
2022-10-11T09:47:52.625Z,62.68
2022-10-11T09:48:52.619Z,60.42
2022-10-11T09:49:52.602Z,59.94
2022-10-11T09:50:52.597Z,62.84
2022-10-11T09:51:52.595Z,62.84
2022-10-11T09:52:52.578Z,62.84
2022-10-11T09:53:52.570Z,60.42
2022-10-11T09:54:52.567Z,57.85
2022-10-11T09:55:52.549Z,61.71
2022-10-11T09:56:52.546Z,62.36
2022-10-11T09:57:52.528Z,60.91
2022-10-11T09:58:52.513Z,64.61
2022-10-11T09:59:52.509Z,63.97
2022-10-11T10:00:52.496Z,63.97
2022-10-11T10:01:52.537Z,59.78
2022-10-11T10:02:52.492Z,59.62
2022-10-11T10:03:52.467Z,61.55
2022-10-11T10:04:52.452Z,63.81
2022-10-11T10:05:52.444Z,63.97
2022-10-11T10:06:52.505Z,64.29
2022-10-11T10:07:52.427Z,61.39
2022-10-11T10:08:52.422Z,63.49
2022-10-11T10:09:52.400Z,63.97
2022-10-11T10:10:57.054Z,64.29
2022-10-11T10:11:54.394Z,60.91
2022-10-11T10:12:52.416Z,63.49
2022-10-11T10:13:52.367Z,62.52
2022-10-11T10:14:52.349Z,64.61
2022-10-11T10:15:52.347Z,60.59
2022-10-11T10:16:52.357Z,62.52
2022-10-11T10:17:52.331Z,62.68
2022-10-11T10:18:52.313Z,64.61
2022-10-11T10:19:52.306Z,63.16
2022-10-11T10:20:52.289Z,61.39
2022-10-11T10:21:52.287Z,61.23
2022-10-11T10:22:52.268Z,65.58
2022-10-11T10:23:52.267Z,63.97
2022-10-11T10:24:52.255Z,63.00
2022-10-11T10:25:52.243Z,65.58
2022-10-11T10:26:52.245Z,63.65
2022-10-11T10:27:52.256Z,60.91
2022-10-11T10:28:52.302Z,64.45
2022-10-11T10:29:52.224Z,62.84
2022-10-11T10:30:52.191Z,63.65
2022-10-11T10:32:21.208Z,65.90
2022-10-11T10:32:54.184Z,66.87
2022-10-11T10:33:52.180Z,64.13
2022-10-11T10:34:52.154Z,64.61
2022-10-11T10:35:52.143Z,62.52
2022-10-11T10:36:52.149Z,67.68
2022-10-11T10:37:52.182Z,62.68
2022-10-11T10:38:52.496Z,61.39
2022-10-11T10:39:53.104Z,61.55
2022-10-11T10:40:52.094Z,64.45
2022-10-11T10:41:52.088Z,66.87
2022-10-11T10:42:52.100Z,62.36
2022-10-11T10:43:52.072Z,66.06
2022-10-11T10:44:52.053Z,62.52
2022-10-11T10:45:52.040Z,61.07
2022-10-11T10:46:52.048Z,63.81
2022-10-11T10:47:52.028Z,63.49
2022-10-11T10:49:54.909Z,65.58
2022-10-11T10:50:52.999Z,62.52
2022-10-11T10:51:52.003Z,65.74
2022-10-11T10:52:51.962Z,64.29
2022-10-11T10:53:52.962Z,63.97
2022-10-11T10:54:51.956Z,65.26
2022-10-11T10:55:51.941Z,63.00
2022-10-11T10:56:51.944Z,65.10
2022-10-11T10:57:51.938Z,63.16
2022-10-11T10:58:51.906Z,64.45
2022-10-11T10:59:51.898Z,62.04
2022-10-11T11:00:51.887Z,62.84
2022-10-11T11:01:51.906Z,64.78
2022-10-11T11:02:52.029Z,66.23
2022-10-11T11:03:51.850Z,61.23
2022-10-11T11:04:51.877Z,61.39
2022-10-11T11:05:52.839Z,64.29
2022-10-11T11:06:51.835Z,64.61
2022-10-11T11:07:51.812Z,65.90
2022-10-11T11:08:51.831Z,63.33
2022-10-11T11:09:51.791Z,64.13
2022-10-11T11:10:51.784Z,65.26
2022-10-11T11:11:51.802Z,65.42
2022-10-11T11:12:51.766Z,64.13
2022-10-11T11:13:51.750Z,64.13
2022-10-11T11:14:51.757Z,63.33
2022-10-11T11:15:51.750Z,64.78
2022-10-11T11:16:51.740Z,64.29
2022-10-11T11:17:51.816Z,63.00
2022-10-11T11:18:51.698Z,65.42
2022-10-11T11:19:51.693Z,62.04
2022-10-11T11:20:51.697Z,61.71
2022-10-11T11:21:51.682Z,63.33
2022-10-11T11:22:51.655Z,65.90
2022-10-11T11:23:51.671Z,66.71
2022-10-11T11:24:51.750Z,62.52
2022-10-11T11:25:51.624Z,62.84
2022-10-11T11:26:51.624Z,61.71
2022-10-11T11:27:51.606Z,65.74
2022-10-11T11:28:51.672Z,63.33
2022-10-11T11:29:55.326Z,65.90
2022-10-11T11:30:52.590Z,62.68
2022-10-11T11:31:51.591Z,65.10
2022-10-11T11:32:51.554Z,63.16
2022-10-11T11:33:51.556Z,65.26
2022-10-11T11:34:51.531Z,66.23
2022-10-11T11:35:51.523Z,63.00
2022-10-11T11:36:51.526Z,66.39
2022-10-11T11:37:57.923Z,63.81
2022-10-11T11:38:53.489Z,66.06
2022-10-11T11:39:51.476Z,65.58
2022-10-11T11:40:51.467Z,63.33
2022-10-11T11:41:51.467Z,63.97
2022-10-11T11:42:51.483Z,65.10
2022-10-11T11:43:51.440Z,64.94
2022-10-11T11:44:51.457Z,63.33
2022-10-11T11:45:51.426Z,60.42
2022-10-11T11:46:51.421Z,60.75
2022-10-11T11:47:52.397Z,65.42
2022-10-11T11:48:51.404Z,61.07
2022-10-11T11:49:51.380Z,65.58
2022-10-11T11:50:51.384Z,65.90
2022-10-11T11:51:51.374Z,64.94
2022-10-11T11:52:51.349Z,60.59
2022-10-11T11:53:51.337Z,63.97
2022-10-11T11:54:51.334Z,62.20
2022-10-11T11:55:51.317Z,62.36
2022-10-11T11:56:51.317Z,62.52
2022-10-11T11:57:51.332Z,64.13
2022-10-11T11:58:51.302Z,62.52
2022-10-11T11:59:51.286Z,62.20
2022-10-11T12:00:51.265Z,65.58
2022-10-11T12:01:51.842Z,63.65
2022-10-11T12:02:52.286Z,62.04
2022-10-11T12:03:51.238Z,65.58
2022-10-11T12:04:51.224Z,62.52
2022-10-11T12:05:51.220Z,65.58
2022-10-11T12:07:14.580Z,64.94
2022-10-11T12:07:53.202Z,65.90
2022-10-11T12:08:51.221Z,62.36
2022-10-11T12:09:51.194Z,63.81
2022-10-11T12:10:51.161Z,62.84
2022-10-11T12:11:52.180Z,66.55
2022-10-11T12:12:51.154Z,65.10
2022-10-11T12:13:51.148Z,62.36
2022-10-11T12:14:51.146Z,59.94
2022-10-11T12:15:51.124Z,61.23
2022-10-11T12:16:51.128Z,64.78
2022-10-11T12:17:51.107Z,67.19
2022-10-11T12:18:51.093Z,67.03
2022-10-11T12:19:51.089Z,59.14
2022-10-11T12:20:51.080Z,67.03
2022-10-11T12:21:51.090Z,65.26
2022-10-11T12:22:51.052Z,67.35
2022-10-11T12:23:51.053Z,63.33
2022-10-11T12:24:51.052Z,63.00
2022-10-11T12:25:51.031Z,66.23
2022-10-11T12:26:51.021Z,65.74
2022-10-11T12:27:51.012Z,65.74
2022-10-11T12:28:51.013Z,62.84
2022-10-11T12:29:50.988Z,65.26
2022-10-11T12:30:50.969Z,62.84
2022-10-11T12:31:50.978Z,66.06
2022-10-11T12:32:50.971Z,62.52
2022-10-11T12:33:50.942Z,62.52
2022-10-11T12:34:50.928Z,63.16
2022-10-11T12:35:50.921Z,65.90
2022-10-11T12:36:50.922Z,67.84
2022-10-11T12:37:50.948Z,65.42
2022-10-11T12:38:50.891Z,65.58
2022-10-11T12:39:50.894Z,64.29
2022-10-11T12:40:50.867Z,67.84
2022-10-11T12:41:50.865Z,64.29
2022-10-11T12:42:50.871Z,67.35
2022-10-11T12:43:50.848Z,64.94
2022-10-11T12:44:50.833Z,65.74
2022-10-11T12:45:50.825Z,61.87
2022-10-11T12:46:50.812Z,63.49
2022-10-11T12:47:50.826Z,65.26
2022-10-11T12:48:50.795Z,64.78
2022-10-11T12:49:50.782Z,60.91
2022-10-11T12:50:50.769Z,68.00
2022-10-11T12:51:50.762Z,69.77
2022-10-11T12:52:50.761Z,68.16
2022-10-11T12:54:14.346Z,67.51